createdAt,value
2019-05-20T00:00:28.259Z,0.00
2019-05-20T00:01:28.239Z,0.00
2019-05-20T00:02:28.722Z,0.00
2019-05-20T00:03:28.218Z,0.00
2019-05-20T00:04:28.203Z,0.00
2019-05-20T00:05:28.210Z,0.00
2019-05-20T00:06:28.180Z,0.00
2019-05-20T00:07:28.181Z,0.00
2019-05-20T00:08:28.157Z,0.00
2019-05-20T00:09:28.165Z,0.00
2019-05-20T00:10:28.185Z,0.00
2019-05-20T00:11:28.138Z,0.00
2019-05-20T00:12:28.110Z,0.00
2019-05-20T00:13:28.097Z,0.00
2019-05-20T00:14:28.091Z,0.00
2019-05-20T00:15:28.125Z,0.00
2019-05-20T00:16:28.082Z,0.00
2019-05-20T00:17:28.055Z,0.00
2019-05-20T00:18:28.050Z,0.00
2019-05-20T00:19:28.035Z,0.00
2019-05-20T00:20:28.037Z,0.00
2019-05-20T00:21:28.011Z,0.00
2019-05-20T00:22:27.999Z,0.00
2019-05-20T00:23:27.997Z,0.00
2019-05-20T00:24:27.977Z,0.00
2019-05-20T00:25:27.988Z,0.00
2019-05-20T00:26:27.958Z,0.00
2019-05-20T00:27:27.947Z,0.00
2019-05-20T00:28:27.942Z,0.00
2019-05-20T00:29:27.934Z,0.00
2019-05-20T00:30:27.934Z,0.00
2019-05-20T00:31:27.899Z,0.00
2019-05-20T00:32:40.232Z,0.00
2019-05-20T00:33:28.879Z,0.00
2019-05-20T00:34:35.252Z,0.00
2019-05-20T00:35:28.875Z,0.00
2019-05-20T00:36:27.853Z,0.00
2019-05-20T00:37:27.837Z,0.00
2019-05-20T00:38:27.828Z,0.00
2019-05-20T00:39:27.819Z,0.00
2019-05-20T00:40:27.816Z,0.00
2019-05-20T00:41:27.803Z,0.00
2019-05-20T00:42:27.786Z,0.00
2019-05-20T00:43:27.776Z,0.00
2019-05-20T00:44:27.761Z,0.00
2019-05-20T00:45:27.759Z,0.00
2019-05-20T00:46:27.755Z,0.00
2019-05-20T00:47:27.766Z,0.00
2019-05-20T00:48:27.747Z,0.00
2019-05-20T00:49:27.704Z,0.00
2019-05-20T00:50:27.731Z,0.00
2019-05-20T00:51:27.684Z,0.00
2019-05-20T00:52:27.681Z,0.00
2019-05-20T00:53:27.662Z,0.00
2019-05-20T00:54:27.650Z,0.00
2019-05-20T00:55:27.659Z,0.00
2019-05-20T00:56:27.633Z,0.00
2019-05-20T00:57:27.648Z,0.00
2019-05-20T00:58:27.612Z,0.00
2019-05-20T00:59:27.598Z,0.00
2019-05-20T01:00:27.606Z,0.00
2019-05-20T01:01:27.580Z,0.00
2019-05-20T01:02:27.583Z,0.00
2019-05-20T01:03:27.563Z,0.00
2019-05-20T01:04:27.543Z,0.00
2019-05-20T01:05:27.533Z,0.00
2019-05-20T01:06:27.532Z,0.00
2019-05-20T01:07:27.510Z,0.00
2019-05-20T01:08:27.511Z,0.00
2019-05-20T01:09:27.484Z,0.00
2019-05-20T01:10:27.477Z,0.00
2019-05-20T01:11:27.480Z,0.00
2019-05-20T01:12:27.463Z,0.00
2019-05-20T01:13:27.444Z,0.00
2019-05-20T01:14:27.438Z,0.00
2019-05-20T01:15:27.432Z,0.00
2019-05-20T01:16:27.434Z,0.00
2019-05-20T01:17:27.414Z,0.00
2019-05-20T01:18:27.389Z,0.00
2019-05-20T01:19:27.386Z,0.00
2019-05-20T01:20:27.369Z,0.00
2019-05-20T01:21:27.366Z,0.00
2019-05-20T01:22:27.351Z,0.00
2019-05-20T01:23:27.334Z,0.00
2019-05-20T01:24:27.343Z,0.00
2019-05-20T01:25:27.318Z,0.00
2019-05-20T01:26:27.334Z,0.00
2019-05-20T01:27:27.288Z,0.00
2019-05-20T01:28:27.283Z,0.00
2019-05-20T01:29:27.280Z,0.00
2019-05-20T01:30:27.253Z,0.00
2019-05-20T01:31:27.269Z,0.00
2019-05-20T01:32:27.239Z,0.00
2019-05-20T01:33:27.229Z,0.00
2019-05-20T01:34:27.230Z,0.00
2019-05-20T01:35:27.202Z,0.00
2019-05-20T01:36:27.207Z,0.00
2019-05-20T01:37:27.181Z,0.00
2019-05-20T01:38:27.171Z,0.00
2019-05-20T01:39:27.183Z,0.00
2019-05-20T01:40:27.146Z,0.00
2019-05-20T01:41:27.149Z,0.00
2019-05-20T01:42:27.128Z,0.00
2019-05-20T01:43:27.114Z,0.00
2019-05-20T01:44:27.101Z,0.00
2019-05-20T01:45:27.091Z,0.00
2019-05-20T01:46:27.095Z,0.00
2019-05-20T01:47:27.067Z,0.00
2019-05-20T01:48:27.059Z,0.00
2019-05-20T01:49:27.047Z,0.00
2019-05-20T01:50:27.042Z,0.00
2019-05-20T01:51:27.045Z,0.00
2019-05-20T01:52:27.013Z,0.00
2019-05-20T01:53:27.003Z,0.00
2019-05-20T01:54:27.000Z,0.00
2019-05-20T01:55:26.998Z,0.00
2019-05-20T01:56:26.997Z,0.00
2019-05-20T01:57:26.957Z,0.00
2019-05-20T01:58:26.959Z,0.00
2019-05-20T01:59:26.949Z,0.00
2019-05-20T02:00:26.929Z,0.00
2019-05-20T02:01:26.945Z,0.00
2019-05-20T02:02:26.915Z,0.00
2019-05-20T02:03:31.916Z,0.00
2019-05-20T02:04:27.883Z,0.00
2019-05-20T02:05:26.876Z,0.00
2019-05-20T02:06:26.877Z,0.00
2019-05-20T02:07:26.851Z,0.00
2019-05-20T02:08:26.841Z,0.00
2019-05-20T02:09:26.858Z,0.00
2019-05-20T02:10:26.822Z,0.00
2019-05-20T02:11:26.819Z,0.00
2019-05-20T02:12:26.798Z,0.00
2019-05-20T02:13:26.786Z,0.00
2019-05-20T02:14:26.777Z,0.00
2019-05-20T02:15:26.763Z,0.00
2019-05-20T02:16:26.766Z,0.00
2019-05-20T02:17:26.741Z,0.00
2019-05-20T02:18:26.737Z,0.00
2019-05-20T02:19:26.717Z,0.00
2019-05-20T02:20:26.718Z,0.00
2019-05-20T02:21:26.715Z,0.00
2019-05-20T02:22:26.686Z,0.00
2019-05-20T02:23:26.676Z,0.00
2019-05-20T02:24:26.664Z,0.00
2019-05-20T02:25:26.652Z,0.00
2019-05-20T02:26:26.660Z,0.00
2019-05-20T02:27:26.639Z,0.00
2019-05-20T02:28:26.626Z,0.00
2019-05-20T02:29:26.609Z,0.00
2019-05-20T02:30:26.598Z,0.00
2019-05-20T02:31:26.610Z,0.00
2019-05-20T02:32:26.584Z,0.00
2019-05-20T02:33:26.576Z,0.00
2019-05-20T02:34:26.562Z,0.00
2019-05-20T02:35:26.548Z,0.00
2019-05-20T02:36:26.553Z,0.00
2019-05-20T02:37:26.537Z,0.00
2019-05-20T02:38:26.510Z,0.00
2019-05-20T02:39:26.931Z,0.00
2019-05-20T02:40:26.510Z,0.00
2019-05-20T02:41:26.496Z,0.00
2019-05-20T02:42:26.491Z,0.00
2019-05-20T02:43:26.473Z,0.00
2019-05-20T02:44:26.448Z,0.00
2019-05-20T02:45:26.446Z,0.00
2019-05-20T02:46:26.443Z,0.00
2019-05-20T02:47:26.439Z,0.00
2019-05-20T02:48:26.413Z,5.62
2019-05-20T02:49:26.389Z,5.62
2019-05-20T02:50:26.399Z,5.62
2019-05-20T02:51:26.387Z,5.62
2019-05-20T02:52:26.384Z,5.62
2019-05-20T02:53:26.347Z,5.62
2019-05-20T02:54:26.349Z,11.25
2019-05-20T02:55:26.322Z,11.25
2019-05-20T02:56:26.328Z,11.25
2019-05-20T02:57:26.308Z,11.25
2019-05-20T02:58:26.292Z,11.25
2019-05-20T02:59:26.280Z,11.25
2019-05-20T03:00:26.280Z,16.88
2019-05-20T03:01:26.271Z,16.88
2019-05-20T03:02:26.251Z,16.88
2019-05-20T03:03:26.238Z,16.88
2019-05-20T03:04:26.223Z,16.88
2019-05-20T03:05:26.220Z,16.88
2019-05-20T03:06:26.219Z,22.50
2019-05-20T03:07:26.190Z,22.50
2019-05-20T03:08:26.195Z,22.50
2019-05-20T03:09:26.182Z,28.12
2019-05-20T03:10:26.167Z,28.12
2019-05-20T03:11:26.173Z,33.75
2019-05-20T03:12:26.135Z,33.75
2019-05-20T03:13:26.142Z,39.38
2019-05-20T03:14:26.150Z,39.38
2019-05-20T03:15:26.108Z,45.00
2019-05-20T03:16:26.087Z,45.00
2019-05-20T03:17:26.097Z,50.62
2019-05-20T03:18:26.067Z,50.62
2019-05-20T03:19:26.056Z,56.25
2019-05-20T03:20:26.046Z,56.25
2019-05-20T03:21:26.033Z,61.88
2019-05-20T03:22:26.043Z,61.88
2019-05-20T03:23:26.020Z,67.50
2019-05-20T03:24:26.012Z,73.12
2019-05-20T03:25:26.001Z,73.12
2019-05-20T03:26:25.985Z,78.75
2019-05-20T03:27:26.047Z,78.75
2019-05-20T03:28:25.966Z,84.38
2019-05-20T03:29:25.947Z,90.00
2019-05-20T03:30:25.947Z,95.62
2019-05-20T03:31:25.944Z,101.25
2019-05-20T03:32:25.947Z,106.88
2019-05-20T03:33:25.925Z,112.50
2019-05-20T03:34:45.725Z,118.12
2019-05-20T03:35:26.885Z,129.38
2019-05-20T03:36:25.891Z,123.75
2019-05-20T03:37:25.885Z,129.38
2019-05-20T03:38:25.928Z,135.00
2019-05-20T03:39:25.844Z,135.00
2019-05-20T03:40:25.831Z,140.62
2019-05-20T03:41:25.821Z,146.25
2019-05-20T03:42:25.819Z,151.88
2019-05-20T03:43:25.792Z,151.88
2019-05-20T03:44:25.793Z,157.50
2019-05-20T03:45:25.771Z,163.12
2019-05-20T03:46:25.777Z,168.75
2019-05-20T03:47:25.760Z,174.38
2019-05-20T03:48:25.755Z,180.00
2019-05-20T03:49:25.724Z,180.00
2019-05-20T03:50:25.721Z,180.00
2019-05-20T03:51:25.709Z,185.62
2019-05-20T03:52:25.736Z,185.62
2019-05-20T03:53:25.693Z,191.25
2019-05-20T03:54:25.687Z,196.88
2019-05-20T03:55:25.675Z,202.50
2019-05-20T03:56:25.650Z,202.50
2019-05-20T03:57:25.659Z,208.12
2019-05-20T03:58:25.631Z,213.75
2019-05-20T03:59:25.637Z,219.38
2019-05-20T04:00:25.606Z,219.38
2019-05-20T04:01:25.600Z,219.38
2019-05-20T04:02:25.608Z,219.38
2019-05-20T04:03:25.585Z,219.38
2019-05-20T04:04:25.590Z,213.75
2019-05-20T04:05:25.569Z,230.62
2019-05-20T04:06:25.551Z,236.25
2019-05-20T04:07:25.546Z,236.25
2019-05-20T04:08:25.528Z,241.88
2019-05-20T04:09:25.512Z,253.12
2019-05-20T04:10:25.506Z,258.75
2019-05-20T04:11:25.493Z,270.00
2019-05-20T04:12:25.496Z,275.62
2019-05-20T04:13:25.468Z,275.62
2019-05-20T04:14:25.465Z,286.88
2019-05-20T04:15:25.449Z,298.12
2019-05-20T04:16:25.447Z,298.12
2019-05-20T04:17:25.441Z,303.75
2019-05-20T04:18:25.425Z,309.38
2019-05-20T04:19:25.437Z,315.00
2019-05-20T04:20:25.402Z,326.25
2019-05-20T04:21:25.395Z,331.88
2019-05-20T04:22:25.392Z,331.88
2019-05-20T04:23:25.380Z,331.88
2019-05-20T04:24:25.379Z,326.25
2019-05-20T04:25:25.354Z,315.00
2019-05-20T04:26:25.334Z,320.62
2019-05-20T04:27:25.344Z,320.62
2019-05-20T04:28:25.307Z,320.62
2019-05-20T04:29:25.305Z,326.25
2019-05-20T04:30:25.286Z,337.50
2019-05-20T04:31:25.276Z,348.75
2019-05-20T04:32:25.271Z,354.38
2019-05-20T04:33:25.250Z,360.00
2019-05-20T04:34:25.237Z,365.62
2019-05-20T04:35:25.255Z,371.25
2019-05-20T04:36:25.233Z,371.25
2019-05-20T04:37:25.228Z,376.88
2019-05-20T04:38:25.199Z,388.12
2019-05-20T04:39:25.190Z,399.38
2019-05-20T04:40:25.203Z,410.62
2019-05-20T04:41:25.170Z,410.62
2019-05-20T04:42:25.171Z,416.25
2019-05-20T04:43:25.145Z,410.62
2019-05-20T04:44:25.138Z,405.00
2019-05-20T04:45:25.117Z,416.25
2019-05-20T04:46:25.103Z,438.75
2019-05-20T04:47:25.114Z,455.62
2019-05-20T04:48:25.086Z,444.38
2019-05-20T04:49:25.070Z,421.88
2019-05-20T04:50:25.061Z,450.00
2019-05-20T04:51:25.059Z,461.25
2019-05-20T04:52:25.053Z,472.50
2019-05-20T04:53:25.032Z,500.62
2019-05-20T04:54:25.013Z,517.50
2019-05-20T04:55:25.013Z,489.38
2019-05-20T04:56:29.014Z,500.62
2019-05-20T04:57:25.013Z,528.75
2019-05-20T04:58:24.973Z,523.12
2019-05-20T04:59:24.965Z,556.88
2019-05-20T05:00:24.957Z,579.38
2019-05-20T05:01:24.941Z,562.50
2019-05-20T05:02:24.958Z,556.88
2019-05-20T05:03:24.919Z,540.00
2019-05-20T05:04:24.910Z,478.12
2019-05-20T05:05:37.195Z,466.88
2019-05-20T05:06:25.881Z,478.12
2019-05-20T05:07:24.888Z,461.25
2019-05-20T05:08:24.879Z,523.12
2019-05-20T05:09:24.865Z,517.50
2019-05-20T05:10:24.842Z,551.25
2019-05-20T05:11:24.833Z,579.38
2019-05-20T05:12:24.834Z,590.62
2019-05-20T05:13:24.810Z,601.88
2019-05-20T05:14:24.832Z,601.88
2019-05-20T05:15:24.786Z,613.12
2019-05-20T05:16:24.776Z,618.75
2019-05-20T05:17:24.786Z,624.38
2019-05-20T05:18:24.758Z,646.88
2019-05-20T05:19:24.743Z,669.38
2019-05-20T05:20:24.751Z,720.00
2019-05-20T05:21:24.724Z,731.25
2019-05-20T05:22:24.736Z,736.88
2019-05-20T05:23:24.704Z,922.50
2019-05-20T05:24:24.689Z,961.88
2019-05-20T05:25:24.679Z,1012.50
2019-05-20T05:26:24.674Z,894.38
2019-05-20T05:27:24.672Z,787.50
2019-05-20T05:28:24.651Z,832.50
2019-05-20T05:29:24.638Z,900.00
2019-05-20T05:30:24.628Z,1074.38
2019-05-20T05:31:24.619Z,1186.88
2019-05-20T05:32:24.636Z,1181.25
2019-05-20T05:33:24.609Z,1091.25
2019-05-20T05:34:24.586Z,1428.75
2019-05-20T05:35:24.576Z,1445.62
2019-05-20T05:36:24.584Z,1383.75
2019-05-20T05:37:24.559Z,1468.12
2019-05-20T05:38:24.555Z,1423.12
2019-05-20T05:39:24.532Z,1018.12
2019-05-20T05:40:24.522Z,1305.00
2019-05-20T05:41:24.507Z,1102.50
2019-05-20T05:42:24.498Z,1170.00
2019-05-20T05:43:24.498Z,1113.75
2019-05-20T05:44:24.479Z,1006.88
2019-05-20T05:45:24.466Z,1040.62
2019-05-20T05:46:24.459Z,714.38
2019-05-20T05:47:24.449Z,601.88
2019-05-20T05:48:24.452Z,652.50
2019-05-20T05:49:24.421Z,753.75
2019-05-20T05:50:24.411Z,652.50
2019-05-20T05:51:24.403Z,1113.75
2019-05-20T05:52:24.391Z,1479.38
2019-05-20T05:53:24.401Z,1338.75
2019-05-20T05:54:24.367Z,1434.38
2019-05-20T05:55:24.357Z,1541.25
2019-05-20T05:56:24.348Z,1192.50
2019-05-20T05:57:24.338Z,1209.38
2019-05-20T05:58:24.340Z,1372.50
2019-05-20T05:59:24.317Z,1361.25
2019-05-20T06:00:24.309Z,1327.50
2019-05-20T06:01:24.292Z,1344.38
2019-05-20T06:02:24.279Z,1378.12
2019-05-20T06:03:24.292Z,1451.25
2019-05-20T06:04:24.258Z,1400.62
2019-05-20T06:05:24.246Z,1130.62
2019-05-20T06:06:24.238Z,1158.75
2019-05-20T06:07:24.222Z,1141.88
2019-05-20T06:08:24.229Z,1141.88
2019-05-20T06:09:24.205Z,1136.25
2019-05-20T06:10:24.202Z,1080.00
2019-05-20T06:11:24.182Z,1147.50
2019-05-20T06:12:24.169Z,1158.75
2019-05-20T06:13:24.182Z,1018.12
2019-05-20T06:14:24.167Z,1051.88
2019-05-20T06:15:24.145Z,1080.00
2019-05-20T06:16:35.955Z,1175.62
2019-05-20T06:17:25.116Z,1372.50
2019-05-20T06:18:24.126Z,1338.75
2019-05-20T06:19:24.097Z,1434.38
2019-05-20T06:20:24.088Z,1428.75
2019-05-20T06:21:24.073Z,1586.25
2019-05-20T06:22:24.064Z,1575.00
2019-05-20T06:23:24.071Z,1710.00
2019-05-20T06:24:24.042Z,1839.38
2019-05-20T06:25:24.035Z,1614.38
2019-05-20T06:26:24.024Z,1659.38
2019-05-20T06:27:24.011Z,1794.38
2019-05-20T06:28:24.008Z,1794.38
2019-05-20T06:29:23.988Z,2002.50
2019-05-20T06:30:23.985Z,2109.38
2019-05-20T06:31:23.968Z,2176.88
2019-05-20T06:32:23.956Z,2261.25
2019-05-20T06:33:23.956Z,2356.88
2019-05-20T06:34:23.931Z,2340.00
2019-05-20T06:35:23.920Z,2351.25
2019-05-20T06:36:26.853Z,2379.38
2019-05-20T06:37:24.217Z,2368.12
2019-05-20T06:38:23.918Z,2221.88
2019-05-20T06:39:23.887Z,2176.88
2019-05-20T06:40:23.882Z,2283.75
2019-05-20T06:41:23.856Z,2430.00
2019-05-20T06:42:23.850Z,2441.25
2019-05-20T06:43:23.840Z,2458.12
2019-05-20T06:44:23.842Z,2435.62
2019-05-20T06:45:23.812Z,2418.75
2019-05-20T06:46:23.821Z,2430.00
2019-05-20T06:47:23.797Z,2401.88
2019-05-20T06:48:23.797Z,2441.25
2019-05-20T06:49:23.792Z,2385.00
2019-05-20T06:50:23.766Z,2025.00
2019-05-20T06:51:23.755Z,2520.00
2019-05-20T06:52:35.375Z,2632.50
2019-05-20T06:53:24.741Z,2666.25
2019-05-20T06:54:23.738Z,2756.25
2019-05-20T06:55:23.715Z,2705.62
2019-05-20T06:56:23.698Z,2598.75
2019-05-20T06:57:24.037Z,2396.25
2019-05-20T06:58:23.674Z,2632.50
2019-05-20T06:59:23.688Z,2643.75
2019-05-20T07:00:23.656Z,2615.62
2019-05-20T07:01:23.654Z,2621.25
2019-05-20T07:02:23.640Z,2531.25
2019-05-20T07:03:23.633Z,2373.75
2019-05-20T07:04:23.630Z,2250.00
2019-05-20T07:05:23.610Z,2497.50
2019-05-20T07:06:23.597Z,1355.62
2019-05-20T07:07:23.589Z,1141.88
2019-05-20T07:08:23.586Z,1434.38
2019-05-20T07:09:23.589Z,1766.25
2019-05-20T07:10:23.555Z,1940.62
2019-05-20T07:11:23.545Z,2581.88
2019-05-20T07:12:39.758Z,2745.00
2019-05-20T07:13:24.530Z,2778.75
2019-05-20T07:14:23.570Z,2778.75
2019-05-20T07:15:23.504Z,2851.88
2019-05-20T07:16:23.498Z,2908.12
2019-05-20T07:17:23.483Z,2885.62
2019-05-20T07:18:23.471Z,2671.88
2019-05-20T07:19:23.463Z,2953.12
2019-05-20T07:20:23.475Z,2919.38
2019-05-20T07:21:23.443Z,2514.38
2019-05-20T07:22:23.429Z,2857.50
2019-05-20T07:23:23.417Z,3133.12
2019-05-20T07:24:23.409Z,3155.62
2019-05-20T07:25:23.429Z,2964.38
2019-05-20T07:26:23.393Z,2919.38
2019-05-20T07:27:23.377Z,2953.12
2019-05-20T07:28:23.370Z,2520.00
2019-05-20T07:29:23.358Z,2711.25
2019-05-20T07:30:23.357Z,2407.50
2019-05-20T07:31:23.337Z,2570.62
2019-05-20T07:32:23.331Z,2520.00
2019-05-20T07:33:23.321Z,2857.50
2019-05-20T07:34:23.309Z,3121.88
2019-05-20T07:35:30.204Z,3234.38
2019-05-20T07:36:24.281Z,3459.38
2019-05-20T07:37:23.281Z,3414.38
2019-05-20T07:38:23.279Z,3195.00
2019-05-20T07:39:23.252Z,3470.62
2019-05-20T07:40:23.257Z,3588.75
2019-05-20T07:41:23.234Z,3588.75
2019-05-20T07:42:23.225Z,3543.75
2019-05-20T07:43:23.209Z,3453.75
2019-05-20T07:44:23.203Z,3397.50
2019-05-20T07:45:23.208Z,3251.25
2019-05-20T07:46:23.182Z,3234.38
2019-05-20T07:47:23.173Z,3240.00
2019-05-20T07:48:23.180Z,3268.12
2019-05-20T07:49:23.153Z,3301.88
2019-05-20T07:50:23.212Z,3391.88
2019-05-20T07:51:23.134Z,3476.25
2019-05-20T07:52:23.120Z,3498.75
2019-05-20T07:53:23.111Z,3532.50
2019-05-20T07:54:23.100Z,3802.50
2019-05-20T07:55:23.104Z,3695.62
2019-05-20T07:56:23.077Z,3690.00
2019-05-20T07:57:23.079Z,3735.00
2019-05-20T07:58:23.058Z,3723.75
2019-05-20T07:59:23.055Z,3633.75
2019-05-20T08:00:23.054Z,3425.62
2019-05-20T08:01:23.034Z,3335.62
2019-05-20T08:02:23.023Z,3414.38
2019-05-20T08:03:23.011Z,3240.00
2019-05-20T08:04:23.447Z,2587.50
2019-05-20T08:05:23.022Z,1783.12
2019-05-20T08:06:23.170Z,1918.12
2019-05-20T08:07:29.670Z,1839.38
2019-05-20T08:08:23.962Z,2233.12
2019-05-20T08:09:22.959Z,2745.00
2019-05-20T08:10:22.962Z,2452.50
2019-05-20T08:11:22.933Z,1147.50
2019-05-20T08:12:22.924Z,1141.88
2019-05-20T08:13:22.914Z,967.50
2019-05-20T08:14:22.905Z,1040.62
2019-05-20T08:15:22.902Z,1023.75
2019-05-20T08:16:22.881Z,900.00
2019-05-20T08:17:22.868Z,905.62
2019-05-20T08:18:22.860Z,905.62
2019-05-20T08:19:22.850Z,939.38
2019-05-20T08:20:22.850Z,871.88
2019-05-20T08:21:22.835Z,871.88
2019-05-20T08:22:22.817Z,928.12
2019-05-20T08:23:22.808Z,911.25
2019-05-20T08:24:22.800Z,1361.25
2019-05-20T08:25:22.805Z,810.00
2019-05-20T08:26:22.775Z,810.00
2019-05-20T08:27:22.771Z,826.88
2019-05-20T08:28:22.758Z,826.88
2019-05-20T08:29:22.746Z,759.38
2019-05-20T08:30:22.752Z,1012.50
2019-05-20T08:31:22.728Z,810.00
2019-05-20T08:32:22.739Z,945.00
2019-05-20T08:33:22.701Z,736.88
2019-05-20T08:34:22.697Z,753.75
2019-05-20T08:35:23.785Z,1018.12
2019-05-20T08:36:22.667Z,720.00
2019-05-20T08:37:22.684Z,883.12
2019-05-20T08:38:22.657Z,1681.88
2019-05-20T08:39:22.639Z,1271.25
2019-05-20T08:40:22.642Z,686.25
2019-05-20T08:41:22.672Z,708.75
2019-05-20T08:42:22.604Z,725.62
2019-05-20T08:43:22.598Z,759.38
2019-05-20T08:44:22.599Z,1108.12
2019-05-20T08:45:22.590Z,1248.75
2019-05-20T08:46:22.567Z,1209.38
2019-05-20T08:47:22.551Z,1636.88
2019-05-20T08:48:22.545Z,1968.75
2019-05-20T08:49:22.636Z,1704.38
2019-05-20T08:50:22.535Z,686.25
2019-05-20T08:51:22.512Z,843.75
2019-05-20T08:52:22.500Z,663.75
2019-05-20T08:53:22.489Z,1029.38
2019-05-20T08:54:22.478Z,933.75
2019-05-20T08:55:22.489Z,669.38
2019-05-20T08:56:22.454Z,1710.00
2019-05-20T08:57:22.450Z,1558.12
2019-05-20T08:58:22.441Z,1912.50
2019-05-20T08:59:22.434Z,720.00
2019-05-20T09:00:23.965Z,1383.75
2019-05-20T09:01:22.414Z,635.62
2019-05-20T09:02:22.397Z,635.62
2019-05-20T09:03:22.381Z,641.25
2019-05-20T09:04:22.372Z,658.12
2019-05-20T09:05:22.366Z,658.12
2019-05-20T09:06:22.372Z,686.25
2019-05-20T09:07:22.338Z,742.50
2019-05-20T09:08:22.336Z,759.38
2019-05-20T09:09:22.354Z,815.62
2019-05-20T09:10:22.308Z,855.00
2019-05-20T09:11:22.315Z,860.62
2019-05-20T09:12:22.282Z,905.62
2019-05-20T09:13:22.279Z,1029.38
2019-05-20T09:14:22.262Z,1074.38
2019-05-20T09:15:22.257Z,1181.25
2019-05-20T09:16:22.255Z,1158.75
2019-05-20T09:17:22.228Z,1192.50
2019-05-20T09:18:22.459Z,1237.50
2019-05-20T09:19:22.218Z,1305.00
2019-05-20T09:20:22.242Z,1417.50
2019-05-20T09:21:22.200Z,1580.62
2019-05-20T09:22:22.198Z,1687.50
2019-05-20T09:23:22.170Z,1766.25
2019-05-20T09:24:22.158Z,1771.88
2019-05-20T09:25:22.144Z,1732.50
2019-05-20T09:26:22.171Z,1631.25
2019-05-20T09:27:22.123Z,1586.25
2019-05-20T09:28:22.128Z,1479.38
2019-05-20T09:29:22.102Z,1496.25
2019-05-20T09:30:22.509Z,1395.00
2019-05-20T09:31:22.115Z,1282.50
2019-05-20T09:32:22.066Z,1243.12
2019-05-20T09:33:22.062Z,1215.00
2019-05-20T09:34:22.052Z,1181.25
2019-05-20T09:35:22.037Z,1175.62
2019-05-20T09:36:22.045Z,1113.75
2019-05-20T09:37:22.018Z,1051.88
2019-05-20T09:38:22.011Z,1012.50
2019-05-20T09:39:22.008Z,995.62
2019-05-20T09:40:21.983Z,1372.50
2019-05-20T09:41:21.996Z,1125.00
2019-05-20T09:42:21.968Z,1265.62
2019-05-20T09:43:21.969Z,1248.75
2019-05-20T09:44:21.944Z,1299.38
2019-05-20T09:45:21.933Z,1305.00
2019-05-20T09:46:21.942Z,1327.50
2019-05-20T09:47:21.920Z,1130.62
2019-05-20T09:48:25.035Z,984.38
2019-05-20T09:49:21.902Z,860.62
2019-05-20T09:50:21.882Z,832.50
2019-05-20T09:51:21.887Z,815.62
2019-05-20T09:52:21.871Z,815.62
2019-05-20T09:53:21.856Z,843.75
2019-05-20T09:54:21.839Z,838.12
2019-05-20T09:55:21.909Z,821.25
2019-05-20T09:56:21.833Z,787.50
2019-05-20T09:57:21.810Z,753.75
2019-05-20T09:58:21.877Z,708.75
2019-05-20T09:59:21.794Z,658.12
2019-05-20T10:00:21.781Z,804.38
2019-05-20T10:01:21.782Z,933.75
2019-05-20T10:02:21.771Z,950.62
2019-05-20T10:03:21.745Z,877.50
2019-05-20T10:04:21.733Z,821.25
2019-05-20T10:05:21.721Z,787.50
2019-05-20T10:06:21.732Z,810.00
2019-05-20T10:07:21.701Z,849.38
2019-05-20T10:08:36.365Z,810.00
2019-05-20T10:09:22.679Z,804.38
2019-05-20T10:10:21.672Z,798.75
2019-05-20T10:11:21.680Z,793.12
2019-05-20T10:12:21.652Z,826.88
2019-05-20T10:13:21.639Z,905.62
2019-05-20T10:14:21.631Z,995.62
2019-05-20T10:15:21.617Z,1074.38
2019-05-20T10:16:21.619Z,1198.12
2019-05-20T10:17:21.599Z,945.00
2019-05-20T10:18:36.075Z,1338.75
2019-05-20T10:19:22.572Z,1316.25
2019-05-20T10:20:21.565Z,1018.12
2019-05-20T10:21:21.569Z,1541.25
2019-05-20T10:22:21.540Z,1462.50
2019-05-20T10:23:21.534Z,1338.75
2019-05-20T10:24:21.518Z,1698.75
2019-05-20T10:25:21.511Z,1890.00
2019-05-20T10:26:21.513Z,1366.88
2019-05-20T10:27:21.487Z,2098.12
2019-05-20T10:28:21.477Z,2261.25
2019-05-20T10:29:21.470Z,2064.38
2019-05-20T10:30:21.459Z,1856.25
2019-05-20T10:31:21.480Z,1546.88
2019-05-20T10:32:21.434Z,1726.88
2019-05-20T10:33:21.423Z,1507.50
2019-05-20T10:34:21.419Z,1890.00
2019-05-20T10:35:21.422Z,2643.75
2019-05-20T10:36:21.423Z,2812.50
2019-05-20T10:37:21.384Z,2058.75
2019-05-20T10:38:21.386Z,1552.50
2019-05-20T10:39:21.393Z,2458.12
2019-05-20T10:40:21.352Z,1366.88
2019-05-20T10:41:21.354Z,2013.75
2019-05-20T10:42:21.334Z,2154.38
2019-05-20T10:43:21.323Z,2182.50
2019-05-20T10:44:21.320Z,1873.12
2019-05-20T10:45:21.312Z,1400.62
2019-05-20T10:46:21.311Z,1788.75
2019-05-20T10:47:21.282Z,1681.88
2019-05-20T10:48:21.268Z,1648.12
2019-05-20T10:49:21.258Z,1901.25
2019-05-20T10:50:21.269Z,1861.88
2019-05-20T10:51:21.253Z,2306.25
2019-05-20T10:52:21.228Z,1940.62
2019-05-20T10:53:21.221Z,2103.75
2019-05-20T10:54:21.206Z,1985.62
2019-05-20T10:55:21.195Z,1783.12
2019-05-20T10:56:21.216Z,1704.38
2019-05-20T10:57:21.178Z,1608.75
2019-05-20T10:58:21.188Z,1552.50
2019-05-20T10:59:21.156Z,1608.75
2019-05-20T11:00:21.144Z,1603.12
2019-05-20T11:01:21.169Z,1591.88
2019-05-20T11:02:21.142Z,1569.38
2019-05-20T11:03:21.114Z,1552.50
2019-05-20T11:04:21.105Z,1558.12
2019-05-20T11:05:21.089Z,1631.25
2019-05-20T11:06:21.099Z,1760.62
2019-05-20T11:07:21.081Z,1698.75
2019-05-20T11:08:21.055Z,1631.25
2019-05-20T11:09:21.065Z,1580.62
2019-05-20T11:10:21.040Z,1580.62
2019-05-20T11:11:21.042Z,1614.38
2019-05-20T11:12:21.021Z,1665.00
2019-05-20T11:13:21.009Z,1676.25
2019-05-20T11:14:21.008Z,1631.25
2019-05-20T11:15:20.988Z,1546.88
2019-05-20T11:16:20.992Z,1451.25
2019-05-20T11:17:20.967Z,1333.12
2019-05-20T11:18:20.955Z,1215.00
2019-05-20T11:19:20.947Z,1125.00
2019-05-20T11:20:20.939Z,1068.75
2019-05-20T11:21:20.944Z,1006.88
2019-05-20T11:22:20.921Z,961.88
2019-05-20T11:23:20.917Z,945.00
2019-05-20T11:24:20.893Z,894.38
2019-05-20T11:25:20.885Z,883.12
2019-05-20T11:26:20.888Z,871.88
2019-05-20T11:27:20.859Z,866.25
2019-05-20T11:28:20.852Z,866.25
2019-05-20T11:29:20.843Z,888.75
2019-05-20T11:30:20.830Z,900.00
2019-05-20T11:31:20.839Z,905.62
2019-05-20T11:32:20.813Z,922.50
2019-05-20T11:33:20.801Z,945.00
2019-05-20T11:34:20.789Z,978.75
2019-05-20T11:35:20.784Z,1012.50
2019-05-20T11:36:20.782Z,1046.25
2019-05-20T11:37:20.761Z,1080.00
2019-05-20T11:38:20.755Z,1125.00
2019-05-20T11:39:32.338Z,1147.50
2019-05-20T11:40:21.727Z,1136.25
2019-05-20T11:41:51.039Z,1119.38
2019-05-20T11:42:21.705Z,1108.12
2019-05-20T11:43:20.694Z,1085.62
2019-05-20T11:44:20.681Z,1080.00
2019-05-20T11:45:20.675Z,1068.75
2019-05-20T11:46:20.663Z,1040.62
2019-05-20T11:47:20.669Z,1006.88
2019-05-20T11:48:20.642Z,1012.50
2019-05-20T11:49:20.652Z,1018.12
2019-05-20T11:50:20.629Z,1080.00
2019-05-20T11:51:20.608Z,1175.62
2019-05-20T11:52:20.619Z,1254.38
2019-05-20T11:53:20.601Z,1366.88
2019-05-20T11:54:20.580Z,1524.38
2019-05-20T11:55:20.570Z,1631.25
2019-05-20T11:56:20.579Z,1777.50
2019-05-20T11:57:20.580Z,2002.50
2019-05-20T11:58:20.543Z,2019.38
2019-05-20T11:59:20.532Z,2058.75
2019-05-20T12:00:20.535Z,1940.62
2019-05-20T12:01:20.514Z,1788.75
2019-05-20T12:02:20.517Z,1653.75
2019-05-20T12:03:20.485Z,1569.38
2019-05-20T12:04:20.472Z,1501.88
2019-05-20T12:05:20.465Z,1518.75
2019-05-20T12:06:20.452Z,1569.38
2019-05-20T12:07:20.456Z,1653.75
2019-05-20T12:08:20.431Z,1721.25
2019-05-20T12:09:20.443Z,1794.38
2019-05-20T12:10:20.442Z,1783.12
2019-05-20T12:11:20.402Z,1800.00
2019-05-20T12:12:20.406Z,1726.88
2019-05-20T12:13:20.388Z,1648.12
2019-05-20T12:14:20.373Z,1591.88
2019-05-20T12:15:20.361Z,1507.50
2019-05-20T12:16:20.350Z,1485.00
2019-05-20T12:17:20.391Z,1524.38
2019-05-20T12:18:20.351Z,1614.38
2019-05-20T12:19:20.333Z,1794.38
2019-05-20T12:20:20.325Z,3324.38
2019-05-20T12:21:20.313Z,2306.25
2019-05-20T12:22:20.309Z,2463.75
2019-05-20T12:23:20.279Z,2446.88
2019-05-20T12:24:20.275Z,2283.75
2019-05-20T12:25:20.255Z,2210.62
2019-05-20T12:26:22.630Z,2115.00
2019-05-20T12:27:20.262Z,2221.88
2019-05-20T12:28:20.239Z,2497.50
2019-05-20T12:29:20.235Z,2351.25
2019-05-20T12:30:20.242Z,2171.25